sensor_id;sensor_type;location;lat;lon;timestamp;temperature;humidity
20568;DHT22;10442;49.932;11.592;2022-12-18T00:01:31;-10.80;67.50
20568;DHT22;10442;49.932;11.592;2022-12-18T00:04:02;-10.80;66.60
20568;DHT22;10442;49.932;11.592;2022-12-18T00:06:35;-10.80;66.60
20568;DHT22;10442;49.932;11.592;2022-12-18T00:09:03;-10.80;66.40
20568;DHT22;10442;49.932;11.592;2022-12-18T00:11:31;-10.80;66.40
20568;DHT22;10442;49.932;11.592;2022-12-18T00:13:59;-10.90;66.40
20568;DHT22;10442;49.932;11.592;2022-12-18T00:16:27;-10.90;66.30
20568;DHT22;10442;49.932;11.592;2022-12-18T00:18:59;-10.90;66.30
20568;DHT22;10442;49.932;11.592;2022-12-18T00:21:28;-10.90;66.20
20568;DHT22;10442;49.932;11.592;2022-12-18T00:23:57;-10.90;65.90
20568;DHT22;10442;49.932;11.592;2022-12-18T00:26:27;-11.00;65.80
20568;DHT22;10442;49.932;11.592;2022-12-18T00:29:11;-11.00;65.80
20568;DHT22;10442;49.932;11.592;2022-12-18T00:31:39;-11.10;65.90
20568;DHT22;10442;49.932;11.592;2022-12-18T00:34:08;-11.10;66.20
20568;DHT22;10442;49.932;11.592;2022-12-18T00:36:40;-11.10;66.40
20568;DHT22;10442;49.932;11.592;2022-12-18T00:39:09;-11.10;66.60
20568;DHT22;10442;49.932;11.592;2022-12-18T00:41:37;-11.10;66.70
20568;DHT22;10442;49.932;11.592;2022-12-18T00:44:23;-11.10;66.70
20568;DHT22;10442;49.932;11.592;2022-12-18T00:46:50;-11.10;66.70
20568;DHT22;10442;49.932;11.592;2022-12-18T00:49:19;-11.10;66.50
20568;DHT22;10442;49.932;11.592;2022-12-18T00:51:48;-11.10;66.30
20568;DHT22;10442;49.932;11.592;2022-12-18T00:54:16;-11.10;66.20
20568;DHT22;10442;49.932;11.592;2022-12-18T00:56:44;-11.10;66.10
20568;DHT22;10442;49.932;11.592;2022-12-18T00:59:17;-11.20;66.10
20568;DHT22;10442;49.932;11.592;2022-12-18T01:01:45;-11.20;66.20
20568;DHT22;10442;49.932;11.592;2022-12-18T01:04:13;-11.20;66.30
20568;DHT22;10442;49.932;11.592;2022-12-18T01:06:45;-11.20;66.40
20568;DHT22;10442;49.932;11.592;2022-12-18T01:09:12;-11.20;66.60
20568;DHT22;10442;49.932;11.592;2022-12-18T01:11:40;-11.20;66.80
20568;DHT22;10442;49.932;11.592;2022-12-18T01:14:08;-11.10;67.00
20568;DHT22;10442;49.932;11.592;2022-12-18T01:16:37;-11.10;67.10
20568;DHT22;10442;49.932;11.592;2022-12-18T01:19:05;-11.00;67.00
20568;DHT22;10442;49.932;11.592;2022-12-18T01:21:34;-11.10;66.70
20568;DHT22;10442;49.932;11.592;2022-12-18T01:24:04;-11.10;66.30
20568;DHT22;10442;49.932;11.592;2022-12-18T01:26:32;-11.10;66.00
20568;DHT22;10442;49.932;11.592;2022-12-18T01:28:59;-11.10;65.90
20568;DHT22;10442;49.932;11.592;2022-12-18T01:31:29;-11.10;66.00
20568;DHT22;10442;49.932;11.592;2022-12-18T01:33:59;-11.10;66.30
20568;DHT22;10442;49.932;11.592;2022-12-18T01:36:33;-11.10;66.50
20568;DHT22;10442;49.932;11.592;2022-12-18T01:39:06;-11.10;66.80
20568;DHT22;10442;49.932;11.592;2022-12-18T01:41:35;-11.10;66.90
20568;DHT22;10442;49.932;11.592;2022-12-18T01:50:25;-11.00;67.10
20568;DHT22;10442;49.932;11.592;2022-12-18T01:53:17;-10.90;67.20
20568;DHT22;10442;49.932;11.592;2022-12-18T01:55:51;-10.90;67.10
20568;DHT22;10442;49.932;11.592;2022-12-18T01:58:24;-10.90;67.10
20568;DHT22;10442;49.932;11.592;2022-12-18T02:00:56;-10.90;67.10
20568;DHT22;10442;49.932;11.592;2022-12-18T02:03:24;-10.90;67.20
20568;DHT22;10442;49.932;11.592;2022-12-18T02:06:26;-10.90;67.20
20568;DHT22;10442;49.932;11.592;2022-12-18T02:12:05;-10.80;67.50
20568;DHT22;10442;49.932;11.592;2022-12-18T02:14:55;-10.70;67.60
20568;DHT22;10442;49.932;11.592;2022-12-18T02:17:39;-10.70;67.70
20568;DHT22;10442;49.932;11.592;2022-12-18T02:20:18;-10.70;67.60
20568;DHT22;10442;49.932;11.592;2022-12-18T02:23:09;-10.70;67.60
20568;DHT22;10442;49.932;11.592;2022-12-18T02:26:06;-10.60;67.60
20568;DHT22;10442;49.932;11.592;2022-12-18T02:28:42;-10.60;67.60
20568;DHT22;10442;49.932;11.592;2022-12-18T02:31:14;-10.60;67.60
20568;DHT22;10442;49.932;11.592;2022-12-18T02:33:44;-10.60;67.60
20568;DHT22;10442;49.932;11.592;2022-12-18T02:36:13;-10.60;67.60
20568;DHT22;10442;49.932;11.592;2022-12-18T02:38:44;-10.60;67.50
20568;DHT22;10442;49.932;11.592;2022-12-18T02:41:16;-10.50;67.70
20568;DHT22;10442;49.932;11.592;2022-12-18T02:43:56;-10.50;67.50
20568;DHT22;10442;49.932;11.592;2022-12-18T02:49:31;-10.50;67.70
20568;DHT22;10442;49.932;11.592;2022-12-18T02:52:41;-10.50;68.00
20568;DHT22;10442;49.932;11.592;2022-12-18T03:00:55;-10.40;68.00
20568;DHT22;10442;49.932;11.592;2022-12-18T03:06:07;-10.30;67.90
20568;DHT22;10442;49.932;11.592;2022-12-18T03:08:39;-10.30;67.70
20568;DHT22;10442;49.932;11.592;2022-12-18T03:11:10;-10.30;67.40
20568;DHT22;10442;49.932;11.592;2022-12-18T03:13:52;-10.30;67.10
20568;DHT22;10442;49.932;11.592;2022-12-18T03:16:26;-10.40;67.00
20568;DHT22;10442;49.932;11.592;2022-12-18T03:21:54;-10.40;67.50
20568;DHT22;10442;49.932;11.592;2022-12-18T03:24:26;-10.40;67.60
20568;DHT22;10442;49.932;11.592;2022-12-18T03:26:59;-10.40;67.70
20568;DHT22;10442;49.932;11.592;2022-12-18T03:29:37;-10.30;67.90
20568;DHT22;10442;49.932;11.592;2022-12-18T03:32:12;-10.30;68.00
20568;DHT22;10442;49.932;11.592;2022-12-18T03:34:44;-10.30;68.20
20568;DHT22;10442;49.932;11.592;2022-12-18T03:37:17;-10.30;68.40
20568;DHT22;10442;49.932;11.592;2022-12-18T03:39:44;-10.30;68.40
20568;DHT22;10442;49.932;11.592;2022-12-18T03:42:16;-10.20;68.50
20568;DHT22;10442;49.932;11.592;2022-12-18T03:44:58;-10.20;68.50
20568;DHT22;10442;49.932;11.592;2022-12-18T03:50:44;-10.20;68.30
20568;DHT22;10442;49.932;11.592;2022-12-18T03:56:01;-10.20;67.90
20568;DHT22;10442;49.932;11.592;2022-12-18T03:58:37;-10.20;67.60
20568;DHT22;10442;49.932;11.592;2022-12-18T04:01:25;-10.20;67.40
20568;DHT22;10442;49.932;11.592;2022-12-18T04:03:59;-10.20;67.40
20568;DHT22;10442;49.932;11.592;2022-12-18T04:06:30;-10.30;67.40
20568;DHT22;10442;49.932;11.592;2022-12-18T04:09:03;-10.20;67.50
20568;DHT22;10442;49.932;11.592;2022-12-18T04:11:35;-10.20;67.80
20568;DHT22;10442;49.932;11.592;2022-12-18T04:14:04;-10.30;67.80
20568;DHT22;10442;49.932;11.592;2022-12-18T04:16:36;-10.30;67.80
20568;DHT22;10442;49.932;11.592;2022-12-18T04:19:05;-10.20;67.90
20568;DHT22;10442;49.932;11.592;2022-12-18T04:21:38;-10.20;68.20
20568;DHT22;10442;49.932;11.592;2022-12-18T04:24:06;-10.20;68.10
20568;DHT22;10442;49.932;11.592;2022-12-18T04:26:36;-10.20;67.80
20568;DHT22;10442;49.932;11.592;2022-12-18T04:29:14;-10.20;67.60
20568;DHT22;10442;49.932;11.592;2022-12-18T04:31:42;-10.20;67.70
20568;DHT22;10442;49.932;11.592;2022-12-18T04:34:10;-10.20;68.00
20568;DHT22;10442;49.932;11.592;2022-12-18T04:36:44;-10.20;67.60
20568;DHT22;10442;49.932;11.592;2022-12-18T04:39:13;-10.20;67.70
20568;DHT22;10442;49.932;11.592;2022-12-18T04:41:46;-10.20;67.80
20568;DHT22;10442;49.932;11.592;2022-12-18T04:44:13;-10.20;67.90
20568;DHT22;10442;49.932;11.592;2022-12-18T04:46:41;-10.20;68.10
20568;DHT22;10442;49.932;11.592;2022-12-18T04:49:09;-10.20;68.40
20568;DHT22;10442;49.932;11.592;2022-12-18T04:51:37;-10.20;69.50
20568;DHT22;10442;49.932;11.592;2022-12-18T04:54:05;-10.10;69.20
20568;DHT22;10442;49.932;11.592;2022-12-18T04:56:32;-10.00;69.60
20568;DHT22;10442;49.932;11.592;2022-12-18T04:59:00;-9.90;70.00
20568;DHT22;10442;49.932;11.592;2022-12-18T05:01:27;-9.90;70.20
20568;DHT22;10442;49.932;11.592;2022-12-18T05:04:01;-9.80;70.30
20568;DHT22;10442;49.932;11.592;2022-12-18T05:06:29;-9.80;70.30
20568;DHT22;10442;49.932;11.592;2022-12-18T05:08:56;-9.70;70.50
20568;DHT22;10442;49.932;11.592;2022-12-18T05:11:24;-9.60;70.70
20568;DHT22;10442;49.932;11.592;2022-12-18T05:13:51;-9.60;70.70
20568;DHT22;10442;49.932;11.592;2022-12-18T05:16:19;-9.50;70.70
20568;DHT22;10442;49.932;11.592;2022-12-18T05:18:46;-9.50;70.50
20568;DHT22;10442;49.932;11.592;2022-12-18T05:21:14;-9.50;70.30
20568;DHT22;10442;49.932;11.592;2022-12-18T05:23:41;-9.40;70.30
20568;DHT22;10442;49.932;11.592;2022-12-18T05:26:15;-9.40;70.20
20568;DHT22;10442;49.932;11.592;2022-12-18T05:28:43;-9.40;70.00
20568;DHT22;10442;49.932;11.592;2022-12-18T05:31:11;-9.40;70.10
20568;DHT22;10442;49.932;11.592;2022-12-18T05:33:39;-9.40;70.20
20568;DHT22;10442;49.932;11.592;2022-12-18T05:36:08;-9.40;70.00
20568;DHT22;10442;49.932;11.592;2022-12-18T05:38:37;-9.30;70.00
20568;DHT22;10442;49.932;11.592;2022-12-18T05:41:05;-9.40;69.80
20568;DHT22;10442;49.932;11.592;2022-12-18T05:43:35;-9.30;70.00
20568;DHT22;10442;49.932;11.592;2022-12-18T05:46:05;-9.30;70.00
20568;DHT22;10442;49.932;11.592;2022-12-18T05:48:33;-9.10;70.20
20568;DHT22;10442;49.932;11.592;2022-12-18T05:51:06;-9.30;70.00
20568;DHT22;10442;49.932;11.592;2022-12-18T05:53:35;-9.30;70.00
20568;DHT22;10442;49.932;11.592;2022-12-18T05:56:05;-9.30;70.00
20568;DHT22;10442;49.932;11.592;2022-12-18T05:58:33;-9.30;69.90
20568;DHT22;10442;49.932;11.592;2022-12-18T06:01:12;-9.30;70.00
20568;DHT22;10442;49.932;11.592;2022-12-18T06:03:40;-9.30;70.00
20568;DHT22;10442;49.932;11.592;2022-12-18T06:06:24;-9.30;70.00
20568;DHT22;10442;49.932;11.592;2022-12-18T06:08:53;-9.30;69.80
20568;DHT22;10442;49.932;11.592;2022-12-18T06:11:23;-9.30;69.80
20568;DHT22;10442;49.932;11.592;2022-12-18T06:13:53;-9.20;69.80
20568;DHT22;10442;49.932;11.592;2022-12-18T06:16:26;-9.30;69.80
20568;DHT22;10442;49.932;11.592;2022-12-18T06:18:58;-9.30;69.90
20568;DHT22;10442;49.932;11.592;2022-12-18T06:21:27;-9.20;70.20
20568;DHT22;10442;49.932;11.592;2022-12-18T06:23:55;-9.20;70.50
20568;DHT22;10442;49.932;11.592;2022-12-18T06:26:23;-9.20;71.10
20568;DHT22;10442;49.932;11.592;2022-12-18T06:28:55;-9.10;71.70
20568;DHT22;10442;49.932;11.592;2022-12-18T06:31:23;-9.10;72.00
20568;DHT22;10442;49.932;11.592;2022-12-18T06:33:51;-9.00;72.20
20568;DHT22;10442;49.932;11.592;2022-12-18T06:36:20;-8.90;72.50
20568;DHT22;10442;49.932;11.592;2022-12-18T06:38:48;-8.90;72.70
20568;DHT22;10442;49.932;11.592;2022-12-18T06:41:18;-8.80;72.80
20568;DHT22;10442;49.932;11.592;2022-12-18T06:43:46;-8.70;72.80
20568;DHT22;10442;49.932;11.592;2022-12-18T06:46:14;-8.70;72.80
20568;DHT22;10442;49.932;11.592;2022-12-18T06:48:42;-8.70;72.40
20568;DHT22;10442;49.932;11.592;2022-12-18T06:51:09;-8.60;72.10
20568;DHT22;10442;49.932;11.592;2022-12-18T06:53:37;-8.60;71.80
20568;DHT22;10442;49.932;11.592;2022-12-18T06:56:06;-8.60;71.60
20568;DHT22;10442;49.932;11.592;2022-12-18T06:58:39;-8.60;71.60
20568;DHT22;10442;49.932;11.592;2022-12-18T07:01:10;-8.60;71.70
20568;DHT22;10442;49.932;11.592;2022-12-18T07:03:38;-8.50;72.20
20568;DHT22;10442;49.932;11.592;2022-12-18T07:06:17;-8.50;72.60
20568;DHT22;10442;49.932;11.592;2022-12-18T07:08:48;-8.40;73.20
20568;DHT22;10442;49.932;11.592;2022-12-18T07:11:17;-8.40;73.50
20568;DHT22;10442;49.932;11.592;2022-12-18T07:13:45;-8.30;73.80
20568;DHT22;10442;49.932;11.592;2022-12-18T07:16:16;-8.30;73.70
20568;DHT22;10442;49.932;11.592;2022-12-18T07:18:52;-8.20;73.70
20568;DHT22;10442;49.932;11.592;2022-12-18T07:21:20;-8.10;73.70
20568;DHT22;10442;49.932;11.592;2022-12-18T07:23:47;-8.10;73.90
20568;DHT22;10442;49.932;11.592;2022-12-18T07:26:18;-8.00;73.90
20568;DHT22;10442;49.932;11.592;2022-12-18T07:28:46;-8.00;73.90
20568;DHT22;10442;49.932;11.592;2022-12-18T07:31:17;-7.90;74.10
20568;DHT22;10442;49.932;11.592;2022-12-18T07:33:45;-7.90;74.00
20568;DHT22;10442;49.932;11.592;2022-12-18T07:36:13;-7.80;74.00
20568;DHT22;10442;49.932;11.592;2022-12-18T07:38:41;-7.80;74.00
20568;DHT22;10442;49.932;11.592;2022-12-18T07:41:11;-7.70;74.00
20568;DHT22;10442;49.932;11.592;2022-12-18T07:43:40;-7.70;74.00
20568;DHT22;10442;49.932;11.592;2022-12-18T07:46:09;-7.60;74.00
20568;DHT22;10442;49.932;11.592;2022-12-18T07:48:40;-7.50;74.00
20568;DHT22;10442;49.932;11.592;2022-12-18T07:51:09;-7.50;74.00
20568;DHT22;10442;49.932;11.592;2022-12-18T07:53:40;-7.40;74.00
20568;DHT22;10442;49.932;11.592;2022-12-18T07:56:10;-7.30;73.90
20568;DHT22;10442;49.932;11.592;2022-12-18T07:58:57;-7.20;73.70
20568;DHT22;10442;49.932;11.592;2022-12-18T08:01:25;-7.10;73.60
20568;DHT22;10442;49.932;11.592;2022-12-18T08:03:53;-7.00;73.40
20568;DHT22;10442;49.932;11.592;2022-12-18T08:06:21;-6.90;72.90
20568;DHT22;10442;49.932;11.592;2022-12-18T08:08:55;-6.90;73.30
20568;DHT22;10442;49.932;11.592;2022-12-18T08:11:28;-6.80;73.30
20568;DHT22;10442;49.932;11.592;2022-12-18T08:13:56;-6.70;73.10
20568;DHT22;10442;49.932;11.592;2022-12-18T08:16:24;-6.70;72.90
20568;DHT22;10442;49.932;11.592;2022-12-18T08:18:53;-6.60;72.90
20568;DHT22;10442;49.932;11.592;2022-12-18T08:21:24;-6.50;72.90
20568;DHT22;10442;49.932;11.592;2022-12-18T08:23:53;-6.40;72.80
20568;DHT22;10442;49.932;11.592;2022-12-18T08:26:21;-6.40;72.60
20568;DHT22;10442;49.932;11.592;2022-12-18T08:28:50;-6.30;72.30
20568;DHT22;10442;49.932;11.592;2022-12-18T08:31:18;-6.30;72.20
20568;DHT22;10442;49.932;11.592;2022-12-18T08:33:51;-6.20;72.20
20568;DHT22;10442;49.932;11.592;2022-12-18T08:36:20;-6.20;72.10
20568;DHT22;10442;49.932;11.592;2022-12-18T08:38:48;-6.10;72.00
20568;DHT22;10442;49.932;11.592;2022-12-18T08:41:17;-6.10;71.90
20568;DHT22;10442;49.932;11.592;2022-12-18T08:43:45;-6.00;71.90
20568;DHT22;10442;49.932;11.592;2022-12-18T08:46:39;-6.00;71.80
20568;DHT22;10442;49.932;11.592;2022-12-18T08:49:09;-5.90;72.50
20568;DHT22;10442;49.932;11.592;2022-12-18T08:51:37;-5.90;71.70
20568;DHT22;10442;49.932;11.592;2022-12-18T08:54:06;-5.80;71.80
20568;DHT22;10442;49.932;11.592;2022-12-18T08:56:34;-5.50;71.90
20568;DHT22;10442;49.932;11.592;2022-12-18T08:59:02;-5.70;71.60
20568;DHT22;10442;49.932;11.592;2022-12-18T09:01:29;-5.60;71.50
20568;DHT22;10442;49.932;11.592;2022-12-18T09:03:57;-5.60;71.50
20568;DHT22;10442;49.932;11.592;2022-12-18T09:06:25;-5.50;71.50
20568;DHT22;10442;49.932;11.592;2022-12-18T09:08:53;-5.40;71.60
20568;DHT22;10442;49.932;11.592;2022-12-18T09:11:23;-5.40;71.50
20568;DHT22;10442;49.932;11.592;2022-12-18T09:13:52;-5.30;71.40
20568;DHT22;10442;49.932;11.592;2022-12-18T09:16:22;-5.30;71.30
20568;DHT22;10442;49.932;11.592;2022-12-18T09:18:56;-5.20;71.30
20568;DHT22;10442;49.932;11.592;2022-12-18T09:21:32;-5.10;71.30
20568;DHT22;10442;49.932;11.592;2022-12-18T09:24:04;-5.10;71.80
20568;DHT22;10442;49.932;11.592;2022-12-18T09:26:35;-5.00;71.10
20568;DHT22;10442;49.932;11.592;2022-12-18T09:29:03;-5.00;71.10
20568;DHT22;10442;49.932;11.592;2022-12-18T09:31:31;-4.90;71.10
20568;DHT22;10442;49.932;11.592;2022-12-18T09:33:58;-4.80;71.10
20568;DHT22;10442;49.932;11.592;2022-12-18T09:36:26;-4.80;71.20
20568;DHT22;10442;49.932;11.592;2022-12-18T09:38:54;-4.70;71.10
20568;DHT22;10442;49.932;11.592;2022-12-18T09:41:42;-4.70;71.10
20568;DHT22;10442;49.932;11.592;2022-12-18T09:44:18;-4.60;71.10
20568;DHT22;10442;49.932;11.592;2022-12-18T09:49:40;-4.50;71.00
20568;DHT22;10442;49.932;11.592;2022-12-18T09:55:24;-4.30;70.90
20568;DHT22;10442;49.932;11.592;2022-12-18T09:58:12;-4.20;71.00
20568;DHT22;10442;49.932;11.592;2022-12-18T10:00:42;-4.10;71.00
20568;DHT22;10442;49.932;11.592;2022-12-18T10:03:12;-4.00;70.80
20568;DHT22;10442;49.932;11.592;2022-12-18T10:06:02;-4.00;70.70
20568;DHT22;10442;49.932;11.592;2022-12-18T10:08:49;-3.90;70.60
20568;DHT22;10442;49.932;11.592;2022-12-18T10:11:27;-3.80;70.60
20568;DHT22;10442;49.932;11.592;2022-12-18T10:14:20;-3.80;70.50
20568;DHT22;10442;49.932;11.592;2022-12-18T10:17:13;-3.70;70.40
20568;DHT22;10442;49.932;11.592;2022-12-18T10:19:50;-3.60;70.40
20568;DHT22;10442;49.932;11.592;2022-12-18T10:25:17;-3.60;70.30
20568;DHT22;10442;49.932;11.592;2022-12-18T10:27:46;-3.50;70.20
20568;DHT22;10442;49.932;11.592;2022-12-18T10:30:20;-3.50;70.90
20568;DHT22;10442;49.932;11.592;2022-12-18T10:32:48;-3.40;71.00
20568;DHT22;10442;49.932;11.592;2022-12-18T10:35:26;-3.40;70.20
20568;DHT22;10442;49.932;11.592;2022-12-18T10:43:32;-3.20;70.20
20568;DHT22;10442;49.932;11.592;2022-12-18T10:51:25;-3.00;69.80
20568;DHT22;10442;49.932;11.592;2022-12-18T10:56:30;-3.00;69.60
20568;DHT22;10442;49.932;11.592;2022-12-18T10:59:04;-2.90;69.60
20568;DHT22;10442;49.932;11.592;2022-12-18T11:01:53;-2.90;69.30
20568;DHT22;10442;49.932;11.592;2022-12-18T11:04:27;-2.90;69.30
20568;DHT22;10442;49.932;11.592;2022-12-18T11:07:06;-2.80;69.50
20568;DHT22;10442;49.932;11.592;2022-12-18T11:09:37;-2.80;69.40
20568;DHT22;10442;49.932;11.592;2022-12-18T11:12:16;-2.80;69.50
20568;DHT22;10442;49.932;11.592;2022-12-18T11:14:50;-2.80;69.50
20568;DHT22;10442;49.932;11.592;2022-12-18T11:17:31;-2.80;69.50
20568;DHT22;10442;49.932;11.592;2022-12-18T11:20:29;-2.70;69.70
20568;DHT22;10442;49.932;11.592;2022-12-18T11:23:05;-2.70;69.80
20568;DHT22;10442;49.932;11.592;2022-12-18T11:25:39;-2.60;70.00
20568;DHT22;10442;49.932;11.592;2022-12-18T11:31:25;-2.60;69.90
20568;DHT22;10442;49.932;11.592;2022-12-18T11:36:47;-2.40;70.10
20568;DHT22;10442;49.932;11.592;2022-12-18T11:50:28;-2.20;69.90
20568;DHT22;10442;49.932;11.592;2022-12-18T11:52:56;-2.20;69.90
20568;DHT22;10442;49.932;11.592;2022-12-18T11:55:54;-2.20;70.00
20568;DHT22;10442;49.932;11.592;2022-12-18T11:58:47;-2.10;70.10
20568;DHT22;10442;49.932;11.592;2022-12-18T12:01:49;-2.10;70.00
20568;DHT22;10442;49.932;11.592;2022-12-18T12:07:24;-2.00;70.00
20568;DHT22;10442;49.932;11.592;2022-12-18T12:10:14;-2.00;70.20
20568;DHT22;10442;49.932;11.592;2022-12-18T12:13:16;-1.90;71.00
20568;DHT22;10442;49.932;11.592;2022-12-18T12:16:02;-1.90;70.00
20568;DHT22;10442;49.932;11.592;2022-12-18T12:18:54;-1.90;70.00
20568;DHT22;10442;49.932;11.592;2022-12-18T12:21:39;-1.90;69.90
20568;DHT22;10442;49.932;11.592;2022-12-18T12:27:33;-1.90;70.00
20568;DHT22;10442;49.932;11.592;2022-12-18T12:35:34;-1.90;71.10
20568;DHT22;10442;49.932;11.592;2022-12-18T12:38:11;-1.90;70.30
20568;DHT22;10442;49.932;11.592;2022-12-18T12:41:03;-1.80;70.40
20568;DHT22;10442;49.932;11.592;2022-12-18T12:43:44;-1.80;70.40
20568;DHT22;10442;49.932;11.592;2022-12-18T12:46:19;-1.80;70.40
20568;DHT22;10442;49.932;11.592;2022-12-18T12:48:54;-1.80;70.40
20568;DHT22;10442;49.932;11.592;2022-12-18T12:51:28;-1.80;70.30
20568;DHT22;10442;49.932;11.592;2022-12-18T12:53:58;-1.80;70.30
20568;DHT22;10442;49.932;11.592;2022-12-18T12:56:44;-1.80;70.40
20568;DHT22;10442;49.932;11.592;2022-12-18T12:59:19;-1.80;70.40
20568;DHT22;10442;49.932;11.592;2022-12-18T13:02:16;-1.80;70.30
20568;DHT22;10442;49.932;11.592;2022-12-18T13:05:02;-1.80;70.40
20568;DHT22;10442;49.932;11.592;2022-12-18T13:07:45;-1.70;70.60
20568;DHT22;10442;49.932;11.592;2022-12-18T13:12:56;-1.70;70.50
20568;DHT22;10442;49.932;11.592;2022-12-18T13:18:12;-1.70;70.50
20568;DHT22;10442;49.932;11.592;2022-12-18T13:20:43;-1.50;70.50
20568;DHT22;10442;49.932;11.592;2022-12-18T13:25:52;-1.50;70.30
20568;DHT22;10442;49.932;11.592;2022-12-18T13:28:50;-1.50;70.20
20568;DHT22;10442;49.932;11.592;2022-12-18T13:36:56;-1.50;70.00
20568;DHT22;10442;49.932;11.592;2022-12-18T13:39:32;-1.40;70.10
20568;DHT22;10442;49.932;11.592;2022-12-18T13:44:40;-1.40;70.00
20568;DHT22;10442;49.932;11.592;2022-12-18T13:47:34;-1.40;69.90
20568;DHT22;10442;49.932;11.592;2022-12-18T13:50:25;-1.50;69.80
20568;DHT22;10442;49.932;11.592;2022-12-18T13:53:03;-1.50;69.70
20568;DHT22;10442;49.932;11.592;2022-12-18T13:55:32;-1.40;69.90
20568;DHT22;10442;49.932;11.592;2022-12-18T13:58:05;-1.50;69.90
20568;DHT22;10442;49.932;11.592;2022-12-18T14:00:33;-1.60;69.90
20568;DHT22;10442;49.932;11.592;2022-12-18T14:03:15;-1.60;70.00
20568;DHT22;10442;49.932;11.592;2022-12-18T14:06:15;-1.70;69.90
20568;DHT22;10442;49.932;11.592;2022-12-18T14:08:45;-1.70;70.20
20568;DHT22;10442;49.932;11.592;2022-12-18T14:11:22;-1.70;70.30
20568;DHT22;10442;49.932;11.592;2022-12-18T14:13:52;-1.70;70.40
20568;DHT22;10442;49.932;11.592;2022-12-18T14:16:20;-1.70;70.40
20568;DHT22;10442;49.932;11.592;2022-12-18T14:18:56;-1.80;70.40
20568;DHT22;10442;49.932;11.592;2022-12-18T14:21:49;-1.80;70.50
20568;DHT22;10442;49.932;11.592;2022-12-18T14:24:18;-1.80;70.70
20568;DHT22;10442;49.932;11.592;2022-12-18T14:26:47;-1.70;70.80
20568;DHT22;10442;49.932;11.592;2022-12-18T14:29:26;-1.80;70.70
20568;DHT22;10442;49.932;11.592;2022-12-18T14:32:14;-1.90;70.70
20568;DHT22;10442;49.932;11.592;2022-12-18T14:34:49;-1.90;70.80
20568;DHT22;10442;49.932;11.592;2022-12-18T14:37:22;-1.90;70.90
20568;DHT22;10442;49.932;11.592;2022-12-18T14:39:59;-1.80;71.00
20568;DHT22;10442;49.932;11.592;2022-12-18T14:42:31;-1.90;71.00
20568;DHT22;10442;49.932;11.592;2022-12-18T14:45:36;-1.90;71.00
20568;DHT22;10442;49.932;11.592;2022-12-18T14:53:41;-1.80;71.20
20568;DHT22;10442;49.932;11.592;2022-12-18T15:02:04;-1.90;71.00
20568;DHT22;10442;49.932;11.592;2022-12-18T15:04:40;-1.90;71.00
20568;DHT22;10442;49.932;11.592;2022-12-18T15:09:40;-1.90;71.20
20568;DHT22;10442;49.932;11.592;2022-12-18T15:12:24;-1.90;71.10
20568;DHT22;10442;49.932;11.592;2022-12-18T15:14:53;-1.90;71.00
20568;DHT22;10442;49.932;11.592;2022-12-18T15:17:23;-1.90;71.00
20568;DHT22;10442;49.932;11.592;2022-12-18T15:19:59;-1.90;70.80
20568;DHT22;10442;49.932;11.592;2022-12-18T15:22:34;-1.90;70.70
20568;DHT22;10442;49.932;11.592;2022-12-18T15:25:04;-1.90;70.70
20568;DHT22;10442;49.932;11.592;2022-12-18T15:27:47;-2.00;70.70
20568;DHT22;10442;49.932;11.592;2022-12-18T15:30:16;-2.00;70.90
20568;DHT22;10442;49.932;11.592;2022-12-18T15:32:45;-2.00;70.90
20568;DHT22;10442;49.932;11.592;2022-12-18T15:35:18;-2.00;71.00
20568;DHT22;10442;49.932;11.592;2022-12-18T15:37:48;-2.00;71.10
20568;DHT22;10442;49.932;11.592;2022-12-18T15:40:26;-2.00;71.10
20568;DHT22;10442;49.932;11.592;2022-12-18T15:42:53;-2.00;71.10
20568;DHT22;10442;49.932;11.592;2022-12-18T15:45:40;-2.00;71.20
20568;DHT22;10442;49.932;11.592;2022-12-18T15:48:20;-1.90;71.40
20568;DHT22;10442;49.932;11.592;2022-12-18T15:50:50;-2.00;71.10
20568;DHT22;10442;49.932;11.592;2022-12-18T15:53:18;-2.00;71.10
20568;DHT22;10442;49.932;11.592;2022-12-18T15:55:46;-2.10;71.00
20568;DHT22;10442;49.932;11.592;2022-12-18T15:58:32;-2.00;71.10
20568;DHT22;10442;49.932;11.592;2022-12-18T16:01:01;-2.00;71.10
20568;DHT22;10442;49.932;11.592;2022-12-18T16:03:28;-2.10;71.00
20568;DHT22;10442;49.932;11.592;2022-12-18T16:05:56;-2.10;71.10
20568;DHT22;10442;49.932;11.592;2022-12-18T16:08:26;-2.10;71.00
20568;DHT22;10442;49.932;11.592;2022-12-18T16:10:54;-2.10;71.00
20568;DHT22;10442;49.932;11.592;2022-12-18T16:13:22;-2.10;71.10
20568;DHT22;10442;49.932;11.592;2022-12-18T16:15:49;-2.10;71.10
20568;DHT22;10442;49.932;11.592;2022-12-18T16:18:17;-2.20;71.00
20568;DHT22;10442;49.932;11.592;2022-12-18T16:20:44;-2.20;71.00
20568;DHT22;10442;49.932;11.592;2022-12-18T16:23:12;-2.10;71.00
20568;DHT22;10442;49.932;11.592;2022-12-18T16:25:40;-2.20;70.90
20568;DHT22;10442;49.932;11.592;2022-12-18T16:28:07;-2.10;71.00
20568;DHT22;10442;49.932;11.592;2022-12-18T16:30:35;-2.20;70.90
20568;DHT22;10442;49.932;11.592;2022-12-18T16:33:05;-2.20;70.90
20568;DHT22;10442;49.932;11.592;2022-12-18T16:35:34;-2.20;70.90
20568;DHT22;10442;49.932;11.592;2022-12-18T16:38:04;-2.20;71.00
20568;DHT22;10442;49.932;11.592;2022-12-18T16:40:32;-2.30;71.00
20568;DHT22;10442;49.932;11.592;2022-12-18T16:43:00;-2.30;70.90
20568;DHT22;10442;49.932;11.592;2022-12-18T16:45:27;-2.30;70.90
20568;DHT22;10442;49.932;11.592;2022-12-18T16:48:00;-2.30;70.90
20568;DHT22;10442;49.932;11.592;2022-12-18T16:50:27;-2.30;70.90
20568;DHT22;10442;49.932;11.592;2022-12-18T16:52:55;-2.30;70.80
20568;DHT22;10442;49.932;11.592;2022-12-18T16:55:23;-2.30;70.80
20568;DHT22;10442;49.932;11.592;2022-12-18T16:57:51;-2.30;70.80
20568;DHT22;10442;49.932;11.592;2022-12-18T17:00:18;-2.30;70.80
20568;DHT22;10442;49.932;11.592;2022-12-18T17:02:46;-2.30;70.60
20568;DHT22;10442;49.932;11.592;2022-12-18T17:05:14;-2.30;71.40
20568;DHT22;10442;49.932;11.592;2022-12-18T17:07:42;-2.30;70.60
20568;DHT22;10442;49.932;11.592;2022-12-18T17:10:09;-2.30;70.50
20568;DHT22;10442;49.932;11.592;2022-12-18T17:12:37;-2.40;70.40
20568;DHT22;10442;49.932;11.592;2022-12-18T17:15:05;-2.40;70.40
20568;DHT22;10442;49.932;11.592;2022-12-18T17:17:32;-2.40;70.40
20568;DHT22;10442;49.932;11.592;2022-12-18T17:19:59;-2.50;70.30
20568;DHT22;10442;49.932;11.592;2022-12-18T17:22:27;-2.50;70.40
20568;DHT22;10442;49.932;11.592;2022-12-18T17:24:55;-2.50;70.50
20568;DHT22;10442;49.932;11.592;2022-12-18T17:27:23;-2.50;70.40
20568;DHT22;10442;49.932;11.592;2022-12-18T17:29:50;-2.50;70.40
20568;DHT22;10442;49.932;11.592;2022-12-18T17:32:17;-2.50;70.40
20568;DHT22;10442;49.932;11.592;2022-12-18T17:34:45;-2.60;70.30
20568;DHT22;10442;49.932;11.592;2022-12-18T17:37:12;-2.60;70.40
20568;DHT22;10442;49.932;11.592;2022-12-18T17:39:40;-2.60;70.50